Time;durP1;ratioP1;P1;durP2;ratioP2;P2;SDS_P1;SDS_P2;PMS_P1;PMS_P2;Temp;Humidity;BMP_temperature;BMP_pressure;BME280_temperature;BME280_humidity;BME280_pressure;Samples;Min_cycle;Max_cycle;Signal;HPM_P1;HPM_P2
2024/01/18 00:00:19;;;;;;;19.03;14.70;;;;;;;;;;4878540;28;20230;-84
2024/01/18 00:02:45;;;;;;;15.90;12.60;;;;;;;;;;4855040;28;20210;-85
2024/01/18 00:05:12;;;;;;;18.17;13.97;;;;;;;;;;4861394;28;20273;-84
2024/01/18 00:07:38;;;;;;;16.93;12.97;;;;;;;;;;4918453;28;20187;-86
2024/01/18 00:10:04;;;;;;;18.67;13.47;;;;;;;;;;4890355;28;20186;-84
2024/01/18 00:12:31;;;;;;;17.37;13.70;;;;;;;;;;4928251;28;20237;-84
2024/01/18 00:14:57;;;;;;;18.37;14.37;;;;;;;;;;4869566;28;20215;-84
2024/01/18 00:17:23;;;;;;;16.80;12.57;;;;;;;;;;4979731;28;20191;-85
2024/01/18 00:19:49;;;;;;;17.20;13.60;;;;;;;;;;4974432;28;20587;-85
2024/01/18 00:22:15;;;;;;;18.23;12.87;;;;;;;;;;5025156;28;20419;-85
2024/01/18 00:24:41;;;;;;;15.80;12.67;;;;;;;;;;5025182;28;20206;-85
2024/01/18 00:27:08;;;;;;;16.13;12.97;;;;;;;;;;4946219;28;21036;-84
2024/01/18 00:29:34;;;;;;;16.37;13.17;;;;;;;;;;4972134;28;20538;-85
2024/01/18 00:32:00;;;;;;;16.10;12.60;;;;;;;;;;4974534;28;20604;-85
2024/01/18 00:34:26;;;;;;;17.03;12.90;;;;;;;;;;4945098;28;20623;-85
2024/01/18 00:36:52;;;;;;;18.53;13.60;;;;;;;;;;5024891;28;20205;-85
2024/01/18 00:39:20;;;;;;;18.33;13.77;;;;;;;;;;4976870;28;20218;-84
2024/01/18 00:41:46;;;;;;;17.07;12.70;;;;;;;;;;4943354;28;20210;-85
2024/01/18 00:44:12;;;;;;;17.20;13.17;;;;;;;;;;4960553;28;20206;-85
2024/01/18 00:46:39;;;;;;;16.93;13.27;;;;;;;;;;4961077;28;20183;-85
2024/01/18 00:49:05;;;;;;;17.27;13.73;;;;;;;;;;4954313;28;20367;-85
2024/01/18 00:51:31;;;;;;;16.50;12.60;;;;;;;;;;5034876;28;20188;-85
2024/01/18 00:53:57;;;;;;;17.03;13.47;;;;;;;;;;4965066;28;20205;-85
2024/01/18 00:56:23;;;;;;;16.70;12.73;;;;;;;;;;4980027;28;20175;-85
2024/01/18 00:58:49;;;;;;;17.37;13.83;;;;;;;;;;4953047;28;20191;-85
2024/01/18 01:01:16;;;;;;;18.37;14.20;;;;;;;;;;4970360;28;20559;-85
2024/01/18 01:03:42;;;;;;;18.03;14.23;;;;;;;;;;4997578;28;20280;-85
2024/01/18 01:06:12;;;;;;;17.60;13.80;;;;;;;;;;4966210;28;20373;-85
2024/01/18 01:08:39;;;;;;;17.53;14.03;;;;;;;;;;4981893;28;20260;-85
2024/01/18 01:11:08;;;;;;;18.73;14.67;;;;;;;;;;4987901;28;20196;-85
2024/01/18 01:13:35;;;;;;;21.00;15.87;;;;;;;;;;4956783;28;20449;-85
2024/01/18 01:16:02;;;;;;;19.37;15.17;;;;;;;;;;5001079;28;20257;-85
2024/01/18 01:18:28;;;;;;;19.90;15.73;;;;;;;;;;5013978;28;20199;-84
2024/01/18 01:20:54;;;;;;;21.47;15.93;;;;;;;;;;4984263;28;20187;-85
2024/01/18 01:23:20;;;;;;;21.93;16.50;;;;;;;;;;4960723;28;20219;-85
2024/01/18 01:25:47;;;;;;;22.87;16.87;;;;;;;;;;5017233;28;20175;-84
2024/01/18 01:28:13;;;;;;;20.47;16.27;;;;;;;;;;4988351;28;20197;-85
2024/01/18 01:30:39;;;;;;;23.27;17.10;;;;;;;;;;5037152;28;20186;-85
2024/01/18 01:33:05;;;;;;;20.80;15.77;;;;;;;;;;4978773;28;20198;-84
2024/01/18 01:35:31;;;;;;;22.50;16.63;;;;;;;;;;4983524;28;20650;-84
2024/01/18 01:37:58;;;;;;;21.83;15.97;;;;;;;;;;4956489;28;20224;-84
2024/01/18 01:40:24;;;;;;;25.87;18.63;;;;;;;;;;4970138;28;20202;-84
2024/01/18 01:42:50;;;;;;;20.70;15.37;;;;;;;;;;4998016;28;20662;-84
2024/01/18 01:45:16;;;;;;;24.17;17.07;;;;;;;;;;4964900;28;20197;-84
2024/01/18 01:47:43;;;;;;;22.97;15.80;;;;;;;;;;4988132;28;20190;-85
2024/01/18 01:50:09;;;;;;;22.63;16.77;;;;;;;;;;4965809;28;20181;-85
2024/01/18 01:52:37;;;;;;;23.47;16.00;;;;;;;;;;4955491;28;20191;-84
2024/01/18 01:55:03;;;;;;;20.77;16.20;;;;;;;;;;4977535;28;20210;-84
2024/01/18 01:57:30;;;;;;;24.47;18.37;;;;;;;;;;5014819;28;20190;-84
2024/01/18 01:59:57;;;;;;;21.03;15.63;;;;;;;;;;4983541;28;20671;-85
2024/01/18 02:02:24;;;;;;;22.50;16.00;;;;;;;;;;4964037;28;20273;-85
2024/01/18 02:04:51;;;;;;;22.77;16.07;;;;;;;;;;4987219;28;20202;-84
2024/01/18 02:07:17;;;;;;;19.20;14.53;;;;;;;;;;4983867;28;20206;-85
2024/01/18 02:09:43;;;;;;;18.10;13.60;;;;;;;;;;5016348;28;20695;-85
2024/01/18 02:12:10;;;;;;;16.10;11.93;;;;;;;;;;4987398;28;20183;-85
2024/01/18 02:14:37;;;;;;;16.90;12.90;;;;;;;;;;4967562;28;20214;-85
2024/01/18 02:17:06;;;;;;;16.17;12.87;;;;;;;;;;4986342;28;20187;-85
2024/01/18 02:19:32;;;;;;;15.37;11.37;;;;;;;;;;4987192;28;20197;-85
2024/01/18 02:21:59;;;;;;;14.73;11.30;;;;;;;;;;5032899;28;20610;-85
2024/01/18 02:24:46;;;;;;;14.23;10.93;;;;;;;;;;5011142;28;20201;-84
2024/01/18 02:27:12;;;;;;;15.13;10.93;;;;;;;;;;4956831;28;20249;-84
2024/01/18 02:29:38;;;;;;;12.80;9.70;;;;;;;;;;4965620;28;20187;-85
2024/01/18 02:32:04;;;;;;;12.13;9.43;;;;;;;;;;4961122;28;20669;-85
2024/01/18 02:34:30;;;;;;;15.13;9.57;;;;;;;;;;4980549;28;20214;-85
2024/01/18 02:36:56;;;;;;;12.23;9.93;;;;;;;;;;5000459;28;20249;-85
2024/01/18 02:39:23;;;;;;;12.97;9.07;;;;;;;;;;4961434;28;20240;-84
2024/01/18 02:41:49;;;;;;;12.87;10.10;;;;;;;;;;4957368;28;20273;-85
2024/01/18 02:44:15;;;;;;;12.53;9.57;;;;;;;;;;4983286;28;20205;-85
2024/01/18 02:46:41;;;;;;;14.30;9.53;;;;;;;;;;4948681;28;20187;-85
2024/01/18 02:49:09;;;;;;;13.80;10.03;;;;;;;;;;4967071;28;20538;-85
2024/01/18 02:51:35;;;;;;;11.33;9.50;;;;;;;;;;5024722;28;20301;-85
2024/01/18 02:54:01;;;;;;;12.13;10.00;;;;;;;;;;4966735;28;20256;-85
2024/01/18 02:56:27;;;;;;;13.53;10.67;;;;;;;;;;4970418;28;20211;-85
2024/01/18 02:58:53;;;;;;;14.60;10.43;;;;;;;;;;4960558;28;20516;-84
2024/01/18 03:01:19;;;;;;;12.20;10.50;;;;;;;;;;4973347;28;21192;-84
2024/01/18 03:03:45;;;;;;;13.87;10.47;;;;;;;;;;5010024;28;20729;-84
2024/01/18 03:06:12;;;;;;;13.67;11.17;;;;;;;;;;4961411;28;20278;-84
2024/01/18 03:08:38;;;;;;;16.67;12.30;;;;;;;;;;4982411;28;20194;-84
2024/01/18 03:11:04;;;;;;;14.50;11.03;;;;;;;;;;4952090;28;20254;-85
2024/01/18 03:13:31;;;;;;;15.30;11.47;;;;;;;;;;4965973;28;20199;-84
2024/01/18 03:15:57;;;;;;;13.87;11.30;;;;;;;;;;5027424;28;20186;-84
2024/01/18 03:18:24;;;;;;;17.30;13.13;;;;;;;;;;4954493;28;20658;-84
2024/01/18 03:20:50;;;;;;;15.23;12.50;;;;;;;;;;4946915;28;20216;-84
2024/01/18 03:23:17;;;;;;;15.57;11.60;;;;;;;;;;4984112;28;20215;-84
2024/01/18 03:25:43;;;;;;;19.07;13.50;;;;;;;;;;4975665;28;20198;-84
2024/01/18 03:28:09;;;;;;;21.10;13.90;;;;;;;;;;4975314;28;20199;-84
2024/01/18 03:30:35;;;;;;;17.90;13.03;;;;;;;;;;5005474;28;20292;-84
2024/01/18 03:33:01;;;;;;;17.77;14.00;;;;;;;;;;5006153;28;20183;-84
2024/01/18 03:35:27;;;;;;;21.77;15.53;;;;;;;;;;4970265;28;20199;-86
2024/01/18 03:37:53;;;;;;;25.40;17.90;;;;;;;;;;4960540;28;20197;-86
2024/01/18 03:40:19;;;;;;;20.30;15.77;;;;;;;;;;4975459;28;21637;-86
2024/01/18 03:42:45;;;;;;;21.67;15.77;;;;;;;;;;5010786;28;20242;-86
2024/01/18 03:45:12;;;;;;;19.73;15.30;;;;;;;;;;4964424;28;20210;-86
2024/01/18 03:47:38;;;;;;;20.83;15.50;;;;;;;;;;4961791;28;20718;-87
2024/01/18 03:50:05;;;;;;;19.20;13.87;;;;;;;;;;4971504;28;20183;-87
2024/01/18 03:52:31;;;;;;;21.20;15.53;;;;;;;;;;4980966;28;20289;-86
2024/01/18 03:54:57;;;;;;;18.03;13.80;;;;;;;;;;4991632;28;20727;-85
2024/01/18 03:57:25;;;;;;;20.13;14.70;;;;;;;;;;4974053;28;20179;-86
2024/01/18 03:59:51;;;;;;;20.00;14.97;;;;;;;;;;4958819;28;20240;-86
2024/01/18 04:02:17;;;;;;;21.80;16.65;;;;;;;;;;4963317;28;20441;-86
2024/01/18 04:04:43;;;;;;;22.60;16.17;;;;;;;;;;4961508;28;20213;-86
2024/01/18 04:07:09;;;;;;;21.20;15.27;;;;;;;;;;4957592;28;20882;-86
2024/01/18 04:09:36;;;;;;;22.13;15.83;;;;;;;;;;5021329;28;20175;-87
2024/01/18 04:12:02;;;;;;;22.77;16.53;;;;;;;;;;4942910;28;20718;-86
2024/01/18 04:14:28;;;;;;;22.17;16.03;;;;;;;;;;4984292;28;20616;-86
2024/01/18 04:16:54;;;;;;;22.37;14.53;;;;;;;;;;4970314;28;20666;-86
2024/01/18 04:19:20;;;;;;;20.70;15.60;;;;;;;;;;4956705;28;21603;-86
2024/01/18 04:21:47;;;;;;;20.23;14.47;;;;;;;;;;5013821;28;20194;-86
2024/01/18 04:24:13;;;;;;;21.80;15.23;;;;;;;;;;4976209;28;20694;-86
2024/01/18 04:26:39;;;;;;;22.23;16.27;;;;;;;;;;4942516;28;20190;-86
2024/01/18 04:29:06;;;;;;;20.37;14.43;;;;;;;;;;4988230;28;20278;-84
2024/01/18 04:31:33;;;;;;;21.00;15.47;;;;;;;;;;4982162;28;20510;-86
2024/01/18 04:33:59;;;;;;;21.47;15.53;;;;;;;;;;4985809;28;20242;-86
2024/01/18 04:36:25;;;;;;;20.60;14.17;;;;;;;;;;4984452;28;20658;-87
2024/01/18 04:38:52;;;;;;;23.53;16.70;;;;;;;;;;4964821;28;20190;-87
2024/01/18 04:41:18;;;;;;;24.30;17.27;;;;;;;;;;4972392;28;20179;-87
2024/01/18 04:43:44;;;;;;;24.17;17.07;;;;;;;;;;4959428;28;20219;-87
2024/01/18 04:46:10;;;;;;;20.00;14.97;;;;;;;;;;4944691;28;20198;-87
2024/01/18 04:48:37;;;;;;;20.17;15.30;;;;;;;;;;5003893;28;20197;-86
2024/01/18 04:51:04;;;;;;;23.10;16.50;;;;;;;;;;4950599;28;20277;-87
2024/01/18 04:53:31;;;;;;;19.97;15.07;;;;;;;;;;4989097;28;20629;-86
2024/01/18 04:55:57;;;;;;;23.70;16.40;;;;;;;;;;4966161;28;20185;-87
2024/01/18 04:58:23;;;;;;;22.17;16.10;;;;;;;;;;4974015;28;21559;-87
2024/01/18 05:00:49;;;;;;;23.23;15.80;;;;;;;;;;5010671;28;20257;-86
2024/01/18 05:03:16;;;;;;;23.20;16.33;;;;;;;;;;4975016;28;20237;-87
2024/01/18 05:05:42;;;;;;;21.50;16.23;;;;;;;;;;4959692;28;20278;-86
2024/01/18 05:08:09;;;;;;;22.03;16.13;;;;;;;;;;4986180;28;20265;-87
2024/01/18 05:10:35;;;;;;;24.77;17.43;;;;;;;;;;4953507;28;20180;-87
2024/01/18 05:13:01;;;;;;;21.87;15.23;;;;;;;;;;4991264;28;20218;-87
2024/01/18 05:15:27;;;;;;;25.83;17.47;;;;;;;;;;4976626;28;20206;-87
2024/01/18 05:17:54;;;;;;;24.23;17.23;;;;;;;;;;4969225;28;22285;-87
2024/01/18 05:20:20;;;;;;;23.67;16.67;;;;;;;;;;4986718;28;20563;-87
2024/01/18 05:22:46;;;;;;;24.53;17.83;;;;;;;;;;4997808;28;20284;-86
2024/01/18 05:25:13;;;;;;;24.73;17.23;;;;;;;;;;4956161;28;20222;-86
2024/01/18 05:27:41;;;;;;;29.20;18.63;;;;;;;;;;4994895;28;20214;-87
2024/01/18 05:30:07;;;;;;;25.37;16.87;;;;;;;;;;4961720;28;20727;-87
2024/01/18 05:32:33;;;;;;;23.23;16.43;;;;;;;;;;4985146;28;20191;-87
2024/01/18 05:35:04;;;;;;;23.17;16.43;;;;;;;;;;4973616;28;20245;-87
2024/01/18 05:37:30;;;;;;;22.90;17.13;;;;;;;;;;4952386;28;20179;-86
2024/01/18 05:39:57;;;;;;;24.50;18.50;;;;;;;;;;5000188;28;20305;-86
2024/01/18 05:42:23;;;;;;;26.03;18.43;;;;;;;;;;4957846;28;20284;-87
2024/01/18 05:44:50;;;;;;;28.67;17.80;;;;;;;;;;4976323;28;20206;-86
2024/01/18 05:47:16;;;;;;;24.87;17.60;;;;;;;;;;4962875;28;20190;-87
2024/01/18 05:49:42;;;;;;;24.03;17.37;;;;;;;;;;4965287;28;20191;-87
2024/01/18 05:52:08;;;;;;;22.20;16.30;;;;;;;;;;4964491;28;20658;-87
2024/01/18 05:54:34;;;;;;;23.63;16.67;;;;;;;;;;4993610;28;20245;-87
2024/01/18 05:57:01;;;;;;;22.23;15.70;;;;;;;;;;4944647;28;20252;-87
2024/01/18 05:59:31;;;;;;;26.23;17.53;;;;;;;;;;4954493;28;20731;-87
2024/01/18 06:01:57;;;;;;;25.10;16.37;;;;;;;;;;4974798;28;20218;-86
2024/01/18 06:04:24;;;;;;;24.77;17.77;;;;;;;;;;4952490;28;22697;-87
2024/01/18 06:06:50;;;;;;;24.50;16.67;;;;;;;;;;5000517;28;20262;-87
2024/01/18 06:09:16;;;;;;;26.80;17.53;;;;;;;;;;4955400;28;20179;-85
2024/01/18 06:11:44;;;;;;;25.43;16.77;;;;;;;;;;4949350;28;20216;-82
2024/01/18 06:14:10;;;;;;;22.77;17.00;;;;;;;;;;4981295;28;20571;-82
2024/01/18 06:16:36;;;;;;;23.63;16.40;;;;;;;;;;4961251;28;20329;-81
2024/01/18 06:19:03;;;;;;;25.07;16.80;;;;;;;;;;4997306;28;20305;-84
2024/01/18 06:21:29;;;;;;;22.30;15.80;;;;;;;;;;4993889;28;20256;-83
2024/01/18 06:23:55;;;;;;;24.40;16.27;;;;;;;;;;4970888;28;21107;-82
2024/01/18 06:26:21;;;;;;;25.60;16.73;;;;;;;;;;5030558;28;20186;-82
2024/01/18 06:28:47;;;;;;;22.27;15.47;;;;;;;;;;4953187;28;20654;-83
2024/01/18 06:31:14;;;;;;;21.90;15.07;;;;;;;;;;4975965;28;20213;-79
2024/01/18 06:33:40;;;;;;;21.02;17.42;;;;;;;;;;5016266;28;20421;-81
2024/01/18 06:36:08;;;;;;;19.57;14.57;;;;;;;;;;4969383;28;20213;-78
2024/01/18 06:38:35;;;;;;;19.90;14.40;;;;;;;;;;4982562;28;20622;-74
2024/01/18 06:41:01;;;;;;;19.30;13.87;;;;;;;;;;4981713;28;20186;-73
2024/01/18 06:43:28;;;;;;;22.00;17.23;;;;;;;;;;4965077;28;20430;-75
2024/01/18 06:45:55;;;;;;;21.38;16.95;;;;;;;;;;5013624;28;20465;-76
2024/01/18 06:48:24;;;;;;;19.10;16.90;;;;;;;;;;4974110;28;20520;-75
2024/01/18 06:50:53;;;;;;;18.00;13.90;;;;;;;;;;4970781;28;20221;-74
2024/01/18 06:53:19;;;;;;;18.17;13.80;;;;;;;;;;4986220;28;20183;-84
2024/01/18 06:55:46;;;;;;;19.63;14.10;;;;;;;;;;4968760;28;20203;-84
2024/01/18 06:58:12;;;;;;;20.85;16.55;;;;;;;;;;4942265;28;20660;-84
2024/01/18 07:00:38;;;;;;;19.47;14.93;;;;;;;;;;4993796;28;20582;-84
2024/01/18 07:03:07;;;;;;;21.40;14.80;;;;;;;;;;4945876;28;20671;-83
2024/01/18 07:05:33;;;;;;;21.10;14.17;;;;;;;;;;4988960;28;20580;-84
2024/01/18 07:07:59;;;;;;;20.67;13.67;;;;;;;;;;4955764;28;20229;-84
2024/01/18 07:10:25;;;;;;;22.85;16.23;;;;;;;;;;4952132;28;21952;-84
2024/01/18 07:12:52;;;;;;;19.20;14.20;;;;;;;;;;4996871;28;20198;-84
2024/01/18 07:15:19;;;;;;;17.93;14.07;;;;;;;;;;4949875;28;20219;-84
2024/01/18 07:17:45;;;;;;;20.40;14.97;;;;;;;;;;4972497;28;20198;-83
2024/01/18 07:20:11;;;;;;;20.10;14.03;;;;;;;;;;4971652;28;20548;-83
2024/01/18 07:22:38;;;;;;;18.53;13.80;;;;;;;;;;4952551;28;20215;-83
2024/01/18 07:25:05;;;;;;;19.73;13.60;;;;;;;;;;4978121;28;20272;-83
2024/01/18 07:27:32;;;;;;;19.10;13.87;;;;;;;;;;4987748;28;20187;-83
2024/01/18 07:29:58;;;;;;;18.37;13.50;;;;;;;;;;4964402;28;20202;-84
2024/01/18 07:32:24;;;;;;;17.27;12.90;;;;;;;;;;4991844;28;20191;-83
2024/01/18 07:34:50;;;;;;;21.23;14.07;;;;;;;;;;4943984;28;20682;-84
2024/01/18 07:37:16;;;;;;;22.93;16.20;;;;;;;;;;4964657;28;20197;-83
2024/01/18 07:39:43;;;;;;;22.13;15.43;;;;;;;;;;5007844;28;20204;-84
2024/01/18 07:42:09;;;;;;;21.47;14.80;;;;;;;;;;4959188;28;20310;-83
2024/01/18 07:44:38;;;;;;;20.70;13.70;;;;;;;;;;4966698;28;20781;-85
2024/01/18 07:47:05;;;;;;;20.37;14.13;;;;;;;;;;4983920;28;20182;-82
2024/01/18 07:49:31;;;;;;;17.00;12.20;;;;;;;;;;4965944;28;20229;-82
2024/01/18 07:51:57;;;;;;;17.43;12.20;;;;;;;;;;5011515;28;20580;-83
2024/01/18 07:54:23;;;;;;;16.13;11.63;;;;;;;;;;4948029;28;20217;-83
2024/01/18 07:56:49;;;;;;;13.63;10.07;;;;;;;;;;4934493;28;20190;-83
2024/01/18 07:59:15;;;;;;;13.73;9.73;;;;;;;;;;4987742;28;20213;-83
2024/01/18 08:01:43;;;;;;;13.40;10.43;;;;;;;;;;4929040;28;20214;-83
2024/01/18 08:04:09;;;;;;;14.67;10.90;;;;;;;;;;4950094;28;20606;-83
2024/01/18 08:06:35;;;;;;;15.80;10.73;;;;;;;;;;4991787;28;20190;-83
2024/01/18 08:09:01;;;;;;;14.23;10.27;;;;;;;;;;4935186;28;20198;-83
2024/01/18 08:11:28;;;;;;;12.63;9.00;;;;;;;;;;4990631;28;20183;-82
2024/01/18 08:13:54;;;;;;;12.93;9.67;;;;;;;;;;4959111;28;20230;-83
2024/01/18 08:16:20;;;;;;;14.70;10.57;;;;;;;;;;4970902;28;20194;-83
2024/01/18 08:18:46;;;;;;;14.20;10.17;;;;;;;;;;4994780;28;20190;-83
2024/01/18 08:21:12;;;;;;;14.67;10.63;;;;;;;;;;4947726;28;20183;-82
2024/01/18 08:23:38;;;;;;;15.07;11.20;;;;;;;;;;4949058;28;20218;-83
2024/01/18 08:26:06;;;;;;;17.37;11.80;;;;;;;;;;4983571;28;20184;-82
2024/01/18 08:28:32;;;;;;;16.03;11.70;;;;;;;;;;4953628;28;20194;-83
2024/01/18 08:30:59;;;;;;;17.33;12.37;;;;;;;;;;5008830;28;20195;-82
2024/01/18 08:33:25;;;;;;;18.00;12.37;;;;;;;;;;4947855;28;20285;-83
2024/01/18 08:35:51;;;;;;;16.87;11.00;;;;;;;;;;4969807;28;20209;-82
2024/01/18 08:38:17;;;;;;;15.20;10.93;;;;;;;;;;4986847;28;20229;-82
2024/01/18 08:40:43;;;;;;;15.73;10.90;;;;;;;;;;4951133;28;20195;-82
2024/01/18 08:43:09;;;;;;;15.47;10.63;;;;;;;;;;4969856;28;20214;-83
2024/01/18 08:45:36;;;;;;;12.73;9.23;;;;;;;;;;5008682;28;20277;-82
2024/01/18 08:48:02;;;;;;;12.67;8.83;;;;;;;;;;4969052;28;20457;-82
2024/01/18 08:50:29;;;;;;;13.43;9.33;;;;;;;;;;4986911;28;20206;-82
2024/01/18 08:52:55;;;;;;;13.47;9.90;;;;;;;;;;4950533;28;20266;-82
2024/01/18 08:55:23;;;;;;;15.50;10.67;;;;;;;;;;4946418;28;20329;-82
2024/01/18 08:57:52;;;;;;;15.10;10.97;;;;;;;;;;5007166;28;20186;-82
2024/01/18 09:00:18;;;;;;;16.17;11.13;;;;;;;;;;4964822;28;20189;-82
2024/01/18 09:02:45;;;;;;;14.57;10.97;;;;;;;;;;4990856;28;20210;-82
2024/01/18 09:05:11;;;;;;;16.47;11.33;;;;;;;;;;4991266;28;20191;-82
2024/01/18 09:07:37;;;;;;;13.50;10.20;;;;;;;;;;4967991;28;20198;-82
2024/01/18 09:10:04;;;;;;;15.67;11.00;;;;;;;;;;4983917;28;20178;-82
2024/01/18 09:12:31;;;;;;;15.23;10.90;;;;;;;;;;4976898;28;20213;-82
2024/01/18 09:14:57;;;;;;;16.27;11.00;;;;;;;;;;4966139;28;21019;-82
2024/01/18 09:17:23;;;;;;;16.70;10.93;;;;;;;;;;5025768;28;20191;-81
2024/01/18 09:19:49;;;;;;;15.70;11.13;;;;;;;;;;4964684;28;20193;-80
2024/01/18 09:22:15;;;;;;;16.43;11.70;;;;;;;;;;4967727;28;20203;-82
2024/01/18 09:24:45;;;;;;;16.30;11.33;;;;;;;;;;4987248;28;20218;-79
2024/01/18 09:27:12;;;;;;;17.17;11.40;;;;;;;;;;4961034;28;20561;-79
2024/01/18 09:29:38;;;;;;;17.70;11.60;;;;;;;;;;4964172;28;20171;-79
2024/01/18 09:32:06;;;;;;;19.27;12.77;;;;;;;;;;4983409;28;20179;-80
2024/01/18 09:34:32;;;;;;;18.73;12.20;;;;;;;;;;4965946;28;20195;-79
2024/01/18 09:36:58;;;;;;;14.60;10.53;;;;;;;;;;4999927;28;20203;-79
2024/01/18 09:39:24;;;;;;;15.70;10.13;;;;;;;;;;4971706;28;20712;-80
2024/01/18 09:41:52;;;;;;;15.37;9.73;;;;;;;;;;4961264;28;20181;-80
2024/01/18 09:44:32;;;;;;;17.07;11.87;;;;;;;;;;4992335;28;20204;-80
2024/01/18 09:47:01;;;;;;;17.53;11.67;;;;;;;;;;4965527;28;20186;-80
2024/01/18 09:49:28;;;;;;;17.30;11.23;;;;;;;;;;4963804;28;21317;-80
2024/01/18 09:51:57;;;;;;;17.13;11.50;;;;;;;;;;4982420;28;20194;-80
2024/01/18 09:54:24;;;;;;;17.23;11.80;;;;;;;;;;4944671;28;20210;-80
2024/01/18 09:56:52;;;;;;;16.80;11.70;;;;;;;;;;4965731;28;20187;-80
2024/01/18 09:59:19;;;;;;;17.37;11.93;;;;;;;;;;4989643;28;20179;-80
2024/01/18 10:01:46;;;;;;;17.37;11.60;;;;;;;;;;4960876;28;20257;-80
2024/01/18 10:04:13;;;;;;;19.60;12.53;;;;;;;;;;4961962;28;20206;-80
2024/01/18 10:06:40;;;;;;;20.57;13.30;;;;;;;;;;4999908;28;20189;-80
2024/01/18 10:09:10;;;;;;;21.23;13.63;;;;;;;;;;4963856;28;20273;-80
2024/01/18 10:11:38;;;;;;;21.07;13.93;;;;;;;;;;4971259;28;20186;-80
2024/01/18 10:14:04;;;;;;;23.77;14.50;;;;;;;;;;4987961;28;20552;-80
2024/01/18 10:16:32;;;;;;;22.23;14.67;;;;;;;;;;4994524;28;20178;-80
2024/01/18 10:19:02;;;;;;;23.13;14.57;;;;;;;;;;4982651;28;20750;-80
2024/01/18 10:21:28;;;;;;;23.57;15.27;;;;;;;;;;4949537;28;20701;-80
2024/01/18 10:23:55;;;;;;;24.40;15.93;;;;;;;;;;4960824;28;21804;-80
2024/01/18 10:26:22;;;;;;;24.50;15.27;;;;;;;;;;4993897;28;20193;-81
2024/01/18 10:28:49;;;;;;;22.50;14.23;;;;;;;;;;4952638;28;20286;-81
2024/01/18 10:31:15;;;;;;;23.90;15.93;;;;;;;;;;4969998;28;20274;-82
2024/01/18 10:33:41;;;;;;;26.17;16.53;;;;;;;;;;4986044;28;20186;-80
2024/01/18 10:36:07;;;;;;;26.23;16.50;;;;;;;;;;4985957;28;20670;-81
2024/01/18 10:38:34;;;;;;;26.77;17.33;;;;;;;;;;4956685;28;20191;-81
2024/01/18 10:41:00;;;;;;;25.53;16.90;;;;;;;;;;5000198;28;20187;-81
2024/01/18 10:43:30;;;;;;;27.73;16.90;;;;;;;;;;4944599;28;21058;-81
2024/01/18 10:45:58;;;;;;;26.70;16.63;;;;;;;;;;5004039;28;20194;-81
2024/01/18 10:48:25;;;;;;;25.83;17.00;;;;;;;;;;4963005;28;20241;-81
2024/01/18 10:50:52;;;;;;;27.43;17.40;;;;;;;;;;4969738;28;20183;-81
2024/01/18 10:53:20;;;;;;;27.10;17.00;;;;;;;;;;4980332;28;20187;-81
2024/01/18 10:55:46;;;;;;;26.57;17.10;;;;;;;;;;4948641;28;20545;-81
2024/01/18 10:58:12;;;;;;;28.33;17.60;;;;;;;;;;4954159;28;20199;-81
2024/01/18 11:00:38;;;;;;;27.27;16.90;;;;;;;;;;5002313;28;20639;-80
2024/01/18 11:03:05;;;;;;;27.60;18.33;;;;;;;;;;4966281;28;20210;-79
2024/01/18 11:05:31;;;;;;;26.70;17.60;;;;;;;;;;4998811;28;20218;-80
2024/01/18 11:07:58;;;;;;;25.77;16.53;;;;;;;;;;4968481;28;20191;-80
2024/01/18 11:10:25;;;;;;;25.00;16.30;;;;;;;;;;4967948;28;20226;-80
2024/01/18 11:12:52;;;;;;;23.63;15.80;;;;;;;;;;4986730;28;20222;-79
2024/01/18 11:15:19;;;;;;;26.00;15.27;;;;;;;;;;4948037;28;20613;-79
2024/01/18 11:17:54;;;;;;;21.90;14.53;;;;;;;;;;4949787;28;20178;-81
2024/01/18 11:20:21;;;;;;;23.93;15.83;;;;;;;;;;4978086;28;20197;-81
2024/01/18 11:22:47;;;;;;;22.03;15.33;;;;;;;;;;4975509;28;20206;-82
2024/01/18 11:25:18;;;;;;;24.53;15.63;;;;;;;;;;4971396;28;20232;-75
2024/01/18 11:27:45;;;;;;;26.67;16.60;;;;;;;;;;5004109;28;20186;-79
2024/01/18 11:30:13;;;;;;;24.90;15.20;;;;;;;;;;4947928;28;20557;-76
2024/01/18 11:32:39;;;;;;;23.13;15.73;;;;;;;;;;4953683;28;20193;-75
2024/01/18 11:35:12;;;;;;;23.13;15.97;;;;;;;;;;5001186;28;20271;-79
2024/01/18 11:37:38;;;;;;;23.47;15.33;;;;;;;;;;4965991;28;20232;-79
2024/01/18 11:40:06;;;;;;;23.03;15.50;;;;;;;;;;5009986;28;20201;-82
2024/01/18 11:42:33;;;;;;;28.00;16.73;;;;;;;;;;4987640;28;20230;-80
2024/01/18 11:45:08;;;;;;;24.30;16.27;;;;;;;;;;4944371;28;20269;-79
2024/01/18 11:47:34;;;;;;;30.67;18.20;;;;;;;;;;5001137;28;20644;-81
2024/01/18 11:50:05;;;;;;;26.60;18.17;;;;;;;;;;4954301;28;20195;-80
2024/01/18 11:52:32;;;;;;;25.60;17.73;;;;;;;;;;4972528;28;20186;-79
2024/01/18 11:54:59;;;;;;;26.43;17.27;;;;;;;;;;5005594;28;20212;-81
2024/01/18 11:57:25;;;;;;;29.70;19.20;;;;;;;;;;4943109;28;20567;-80
2024/01/18 11:59:52;;;;;;;24.30;17.70;;;;;;;;;;4968403;28;20296;-80
2024/01/18 12:02:18;;;;;;;29.00;18.20;;;;;;;;;;4981327;28;20218;-79
2024/01/18 12:04:45;;;;;;;29.50;19.33;;;;;;;;;;4973219;28;20285;-80
2024/01/18 12:07:12;;;;;;;27.60;17.90;;;;;;;;;;4965002;28;20270;-81
2024/01/18 12:09:38;;;;;;;27.90;18.10;;;;;;;;;;4997491;28;20225;-80
2024/01/18 12:12:06;;;;;;;26.97;18.27;;;;;;;;;;4962555;28;20681;-81
2024/01/18 12:14:32;;;;;;;24.47;17.03;;;;;;;;;;5004198;28;20341;-79
2024/01/18 12:17:00;;;;;;;23.57;17.07;;;;;;;;;;4945468;28;20209;-80
2024/01/18 12:19:33;;;;;;;25.90;18.40;;;;;;;;;;4983264;28;20203;-79
2024/01/18 12:22:03;;;;;;;24.63;16.63;;;;;;;;;;5001128;28;20184;-79
2024/01/18 12:24:29;;;;;;;25.03;17.57;;;;;;;;;;4970476;28;20213;-79
2024/01/18 12:26:55;;;;;;;26.27;17.53;;;;;;;;;;4967063;28;22067;-79
2024/01/18 12:29:22;;;;;;;25.23;17.63;;;;;;;;;;5002368;28;20186;-79
2024/01/18 12:31:49;;;;;;;24.50;16.53;;;;;;;;;;4946784;28;20214;-79
2024/01/18 12:34:17;;;;;;;23.60;15.83;;;;;;;;;;4996740;28;20289;-79
2024/01/18 12:36:43;;;;;;;26.40;16.90;;;;;;;;;;4998739;28;20651;-79
2024/01/18 12:39:10;;;;;;;26.83;16.53;;;;;;;;;;4964204;28;20662;-77
2024/01/18 12:41:36;;;;;;;23.63;16.27;;;;;;;;;;5018735;28;20178;-78
2024/01/18 12:44:11;;;;;;;27.30;16.93;;;;;;;;;;4999468;28;20214;-80
2024/01/18 12:46:37;;;;;;;26.43;16.40;;;;;;;;;;4974827;28;20182;-74
2024/01/18 12:49:04;;;;;;;25.60;16.03;;;;;;;;;;4999139;28;20679;-75
2024/01/18 12:51:30;;;;;;;25.73;15.43;;;;;;;;;;4968037;28;20183;-77
2024/01/18 12:53:57;;;;;;;25.23;15.50;;;;;;;;;;4976907;28;21629;-80
2024/01/18 12:56:23;;;;;;;22.80;13.77;;;;;;;;;;5004828;28;20288;-83
2024/01/18 12:58:49;;;;;;;24.67;14.70;;;;;;;;;;4988412;28;20198;-83
2024/01/18 13:01:29;;;;;;;22.03;13.07;;;;;;;;;;5007604;28;20293;-83
2024/01/18 13:04:11;;;;;;;20.20;13.03;;;;;;;;;;5027408;28;20233;-83
2024/01/18 13:06:38;;;;;;;20.77;12.50;;;;;;;;;;5014744;28;20432;-83
2024/01/18 13:09:07;;;;;;;21.67;12.13;;;;;;;;;;5010907;28;20425;-83
2024/01/18 13:11:33;;;;;;;18.27;12.17;;;;;;;;;;4994623;28;20190;-83
2024/01/18 13:14:01;;;;;;;17.10;12.03;;;;;;;;;;4997565;28;20229;-83
2024/01/18 13:16:29;;;;;;;17.37;11.37;;;;;;;;;;4969202;28;21694;-83
2024/01/18 13:19:02;;;;;;;18.80;11.67;;;;;;;;;;4998250;28;20209;-83
2024/01/18 13:21:32;;;;;;;19.13;11.47;;;;;;;;;;4971376;28;20229;-83
2024/01/18 13:24:08;;;;;;;20.30;12.00;;;;;;;;;;4970804;28;21681;-83
2024/01/18 13:26:35;;;;;;;17.00;10.97;;;;;;;;;;4989647;28;20182;-83
2024/01/18 13:29:01;;;;;;;20.00;12.17;;;;;;;;;;4968284;28;20222;-83
2024/01/18 13:31:27;;;;;;;16.37;11.20;;;;;;;;;;4949151;28;22485;-83
2024/01/18 13:33:54;;;;;;;18.83;11.33;;;;;;;;;;4996943;28;20210;-83
2024/01/18 13:36:20;;;;;;;18.07;11.67;;;;;;;;;;4967367;28;20186;-83
2024/01/18 13:38:46;;;;;;;18.43;12.13;;;;;;;;;;4964335;28;20572;-82
2024/01/18 13:41:12;;;;;;;22.03;12.07;;;;;;;;;;4986036;28;20661;-82
2024/01/18 13:43:39;;;;;;;18.50;12.23;;;;;;;;;;4974165;28;20605;-82
2024/01/18 13:46:05;;;;;;;18.33;11.67;;;;;;;;;;4979808;28;20282;-80
2024/01/18 13:48:32;;;;;;;18.90;11.70;;;;;;;;;;4945515;28;20189;-80
2024/01/18 13:50:58;;;;;;;19.27;10.97;;;;;;;;;;4959393;28;22205;-80
2024/01/18 13:53:25;;;;;;;19.63;10.63;;;;;;;;;;5003356;28;20585;-80
2024/01/18 13:55:52;;;;;;;18.57;10.93;;;;;;;;;;4958646;28;20181;-80
2024/01/18 13:58:18;;;;;;;18.23;11.00;;;;;;;;;;4998946;28;20193;-80
2024/01/18 14:00:44;;;;;;;16.10;10.50;;;;;;;;;;5028131;28;20190;-80
2024/01/18 14:03:10;;;;;;;21.63;10.03;;;;;;;;;;5004754;28;20198;-81
2024/01/18 14:05:38;;;;;;;19.60;9.87;;;;;;;;;;4993635;28;20640;-79
2024/01/18 14:08:05;;;;;;;14.83;9.40;;;;;;;;;;4975368;28;20197;-80
2024/01/18 14:10:32;;;;;;;17.20;9.27;;;;;;;;;;4964029;28;20269;-80
2024/01/18 14:12:58;;;;;;;14.17;9.50;;;;;;;;;;4994725;28;20186;-80
2024/01/18 14:15:25;;;;;;;15.37;9.23;;;;;;;;;;4956997;28;20214;-80